createdAt,value
2022-10-17T00:01:03.683Z,13.58
2022-10-17T00:03:31.475Z,13.60
2022-10-17T00:05:59.510Z,13.60
2022-10-17T00:08:26.512Z,13.60
2022-10-17T00:11:09.551Z,13.62
2022-10-17T00:13:36.580Z,13.63
2022-10-17T00:16:04.445Z,13.65
2022-10-17T00:18:32.592Z,13.64
2022-10-17T00:20:59.684Z,13.65
2022-10-17T00:23:28.582Z,13.66
2022-10-17T00:26:05.299Z,13.69
2022-10-17T00:28:32.745Z,13.70
2022-10-17T00:31:04.043Z,13.72
2022-10-17T00:33:33.159Z,13.71
2022-10-17T00:36:13.560Z,13.73
2022-10-17T00:38:43.923Z,13.73
2022-10-17T00:41:15.124Z,13.74
2022-10-17T00:44:02.944Z,13.74
2022-10-17T00:46:38.219Z,13.76
2022-10-17T00:49:11.311Z,13.76
2022-10-17T00:51:50.760Z,13.79
2022-10-17T00:54:24.568Z,13.79
2022-10-17T00:56:53.424Z,13.82
2022-10-17T00:59:23.571Z,13.87
2022-10-17T01:02:11.589Z,13.87
2022-10-17T01:04:43.947Z,13.89
2022-10-17T01:07:11.378Z,13.89
2022-10-17T01:09:41.674Z,13.91
2022-10-17T01:12:28.802Z,13.92
2022-10-17T01:15:30.042Z,13.95
2022-10-17T01:18:15.215Z,13.96
2022-10-17T01:21:29.165Z,13.97
2022-10-17T01:24:41.091Z,13.98
2022-10-17T01:27:43.288Z,14.00
2022-10-17T01:30:43.878Z,14.02
2022-10-17T01:33:18.284Z,14.04
2022-10-17T01:35:55.434Z,14.05
2022-10-17T01:38:32.455Z,14.06
2022-10-17T01:41:17.342Z,14.08
2022-10-17T01:44:04.832Z,14.12
2022-10-17T01:46:40.243Z,14.12
2022-10-17T01:49:14.062Z,14.16
2022-10-17T01:51:55.111Z,14.20
2022-10-17T01:54:38.513Z,14.21
2022-10-17T01:57:24.623Z,14.23
2022-10-17T01:59:56.212Z,14.23
2022-10-17T02:02:25.880Z,14.25
2022-10-17T02:04:56.626Z,14.28
2022-10-17T02:07:24.966Z,14.32
2022-10-17T02:09:53.206Z,14.33
2022-10-17T02:12:41.767Z,14.36
2022-10-17T02:15:51.744Z,14.38
2022-10-17T02:18:46.748Z,14.40
2022-10-17T02:21:19.686Z,14.40
2022-10-17T02:23:59.532Z,14.41
2022-10-17T02:26:47.934Z,14.43
2022-10-17T02:29:28.390Z,14.44
2022-10-17T02:32:06.959Z,14.43
2022-10-17T02:34:43.675Z,14.43
2022-10-17T02:37:18.372Z,14.42
2022-10-17T02:39:47.604Z,14.40
2022-10-17T02:42:16.122Z,14.42
2022-10-17T02:44:46.188Z,14.41
2022-10-17T02:47:42.948Z,14.43
2022-10-17T02:50:11.671Z,14.42
2022-10-17T02:53:01.280Z,14.42
2022-10-17T02:55:39.900Z,14.41
2022-10-17T02:58:16.509Z,14.40
2022-10-17T03:00:44.207Z,14.39
2022-10-17T03:03:29.404Z,14.40
2022-10-17T03:06:00.571Z,14.39
2022-10-17T03:08:27.904Z,14.38
2022-10-17T03:10:56.469Z,14.40
2022-10-17T03:13:24.176Z,14.40
2022-10-17T03:15:51.394Z,14.41
2022-10-17T03:18:18.632Z,14.43
2022-10-17T03:20:47.818Z,14.42
2022-10-17T03:23:14.886Z,14.45
2022-10-17T03:25:42.153Z,14.45
2022-10-17T03:28:11.839Z,14.47
2022-10-17T03:30:39.366Z,14.48
2022-10-17T03:33:07.285Z,14.49
2022-10-17T03:35:34.283Z,14.49
2022-10-17T03:38:02.047Z,14.49
2022-10-17T03:40:29.919Z,14.50
2022-10-17T03:42:57.115Z,14.50
2022-10-17T03:45:24.319Z,14.53
2022-10-17T03:47:52.779Z,14.54
2022-10-17T03:50:19.881Z,14.53
2022-10-17T03:52:49.557Z,14.53
2022-10-17T03:55:17.386Z,14.54
2022-10-17T03:57:45.796Z,14.53
2022-10-17T04:00:14.851Z,14.53
2022-10-17T04:02:42.000Z,14.54
2022-10-17T04:05:14.668Z,14.55
2022-10-17T04:07:41.813Z,14.56
2022-10-17T04:10:10.896Z,14.58
2022-10-17T04:12:38.029Z,14.58
2022-10-17T04:15:06.736Z,14.59
2022-10-17T04:17:37.296Z,14.60
2022-10-17T04:20:07.771Z,14.63
2022-10-17T04:22:34.952Z,14.66
2022-10-17T04:25:02.450Z,14.71
2022-10-17T04:27:41.855Z,14.74
2022-10-17T04:30:10.058Z,14.75
2022-10-17T04:32:38.920Z,14.78
2022-10-17T04:35:21.974Z,14.80
2022-10-17T04:37:57.072Z,14.82
2022-10-17T04:40:25.436Z,14.86
2022-10-17T04:42:53.395Z,14.89
2022-10-17T04:45:24.486Z,14.93
2022-10-17T04:47:57.427Z,14.97
2022-10-17T04:50:25.127Z,15.00
2022-10-17T04:53:14.548Z,15.01
2022-10-17T04:55:41.593Z,15.01
2022-10-17T04:58:09.110Z,15.00
2022-10-17T05:00:36.267Z,15.01
2022-10-17T05:03:19.119Z,15.01
2022-10-17T05:05:47.584Z,15.01
2022-10-17T05:08:14.950Z,15.02
2022-10-17T05:10:46.204Z,15.00
2022-10-17T05:13:14.624Z,15.01
2022-10-17T05:15:41.806Z,14.99
2022-10-17T05:18:09.842Z,14.98
2022-10-17T05:20:37.546Z,14.96
2022-10-17T05:23:06.722Z,14.96
2022-10-17T05:25:39.223Z,14.94
2022-10-17T05:28:06.477Z,14.93
2022-10-17T05:30:36.857Z,14.88
2022-10-17T05:33:06.703Z,14.84
2022-10-17T05:35:34.314Z,14.82
2022-10-17T05:38:02.311Z,14.81
2022-10-17T05:40:31.820Z,14.79
2022-10-17T05:42:59.063Z,14.78
2022-10-17T05:45:26.409Z,14.77
2022-10-17T05:47:53.409Z,14.80
2022-10-17T05:50:22.015Z,14.82
2022-10-17T05:53:05.251Z,14.86
2022-10-17T05:55:37.626Z,14.87
2022-10-17T05:58:05.286Z,14.89
2022-10-17T06:00:37.922Z,14.89
2022-10-17T06:03:30.509Z,14.91
2022-10-17T06:06:05.171Z,14.92
2022-10-17T06:08:32.810Z,14.94
2022-10-17T06:11:06.089Z,14.96
2022-10-17T06:13:39.196Z,14.96
2022-10-17T06:16:13.586Z,14.96
2022-10-17T06:18:41.597Z,14.96
2022-10-17T06:21:12.606Z,14.95
2022-10-17T06:23:45.015Z,14.93
2022-10-17T06:26:17.714Z,14.93
2022-10-17T06:28:45.764Z,14.93
2022-10-17T06:31:17.917Z,14.94
2022-10-17T06:33:46.624Z,14.94
2022-10-17T06:36:15.595Z,14.94
2022-10-17T06:38:45.519Z,14.96
2022-10-17T06:41:21.872Z,14.99
2022-10-17T06:43:53.072Z,15.02
2022-10-17T06:46:40.226Z,15.06
2022-10-17T06:49:10.373Z,15.09
2022-10-17T06:51:49.058Z,15.13
2022-10-17T06:54:19.509Z,15.18
2022-10-17T06:57:08.419Z,15.22
2022-10-17T06:59:51.310Z,15.24
2022-10-17T07:02:24.216Z,15.29
2022-10-17T07:04:52.359Z,15.33
2022-10-17T07:07:19.392Z,15.37
2022-10-17T07:09:46.462Z,15.43
2022-10-17T07:12:15.766Z,15.48
2022-10-17T07:14:47.217Z,15.55
2022-10-17T07:17:14.441Z,15.60
2022-10-17T07:19:43.508Z,15.68
2022-10-17T07:22:13.151Z,15.79
2022-10-17T07:24:43.844Z,15.89
2022-10-17T07:27:46.128Z,15.96
2022-10-17T07:30:15.537Z,16.02
2022-10-17T07:32:54.486Z,16.05
2022-10-17T07:35:21.626Z,16.09
2022-10-17T07:37:48.728Z,16.12
2022-10-17T07:40:18.809Z,16.17
2022-10-17T07:42:45.868Z,16.21
2022-10-17T07:45:13.607Z,16.25
2022-10-17T07:47:43.256Z,16.29
2022-10-17T07:50:13.354Z,16.33
2022-10-17T07:52:42.671Z,16.32
2022-10-17T07:55:10.090Z,16.31
2022-10-17T07:57:37.075Z,16.30
2022-10-17T08:00:06.628Z,16.28
2022-10-17T08:02:39.607Z,16.26
2022-10-17T08:05:07.215Z,16.24
2022-10-17T08:07:34.232Z,16.25
2022-10-17T08:10:01.559Z,16.27
2022-10-17T08:12:32.380Z,16.30
2022-10-17T08:15:01.217Z,16.36
2022-10-17T08:17:30.191Z,16.39
2022-10-17T08:19:57.214Z,16.40
2022-10-17T08:22:25.260Z,16.43
2022-10-17T08:24:53.595Z,16.48
2022-10-17T08:27:24.911Z,16.54
2022-10-17T08:29:53.467Z,16.61
2022-10-17T08:32:24.932Z,16.67
2022-10-17T08:34:56.348Z,16.74
2022-10-17T08:37:23.699Z,16.80
2022-10-17T08:39:50.699Z,16.83
2022-10-17T08:42:50.299Z,16.87
2022-10-17T08:45:42.932Z,16.91
2022-10-17T08:48:18.619Z,16.92
2022-10-17T08:50:59.406Z,16.92
2022-10-17T08:53:57.975Z,16.91
2022-10-17T08:56:48.036Z,16.91
2022-10-17T08:59:25.729Z,16.93
2022-10-17T09:02:27.358Z,16.95
2022-10-17T09:05:34.795Z,16.98
2022-10-17T09:08:31.719Z,17.00
2022-10-17T09:11:26.296Z,17.02
2022-10-17T09:14:43.102Z,17.05
2022-10-17T09:17:56.928Z,17.09
2022-10-17T09:20:30.950Z,17.13
2022-10-17T09:23:12.543Z,17.18
2022-10-17T09:25:52.499Z,17.24
2022-10-17T09:28:34.012Z,17.33
2022-10-17T09:31:13.316Z,17.39
2022-10-17T09:33:59.970Z,17.40
2022-10-17T09:36:39.416Z,17.41
2022-10-17T09:39:20.463Z,17.43
2022-10-17T09:41:52.997Z,17.43
2022-10-17T09:44:35.463Z,17.37
2022-10-17T09:47:22.648Z,17.33
2022-10-17T09:49:50.890Z,17.26
2022-10-17T09:52:34.288Z,17.14
2022-10-17T09:55:15.931Z,16.97
2022-10-17T09:57:56.839Z,16.85
2022-10-17T10:00:32.680Z,16.74
2022-10-17T10:03:24.914Z,16.65
2022-10-17T10:06:16.670Z,16.59
2022-10-17T10:09:03.328Z,16.58
2022-10-17T10:11:49.238Z,16.58
2022-10-17T10:14:36.167Z,16.63
2022-10-17T10:17:38.314Z,16.65
2022-10-17T10:20:32.231Z,16.63
2022-10-17T10:23:15.140Z,16.62
2022-10-17T10:25:56.952Z,16.60
2022-10-17T10:28:34.478Z,16.60
2022-10-17T10:31:10.041Z,16.64
2022-10-17T10:33:46.981Z,16.68
2022-10-17T10:36:16.587Z,16.70
2022-10-17T10:38:57.122Z,16.69
2022-10-17T10:41:27.742Z,16.66
2022-10-17T10:43:56.350Z,16.63
2022-10-17T10:46:29.891Z,16.63
2022-10-17T10:49:00.999Z,16.61
2022-10-17T10:51:49.506Z,16.62
2022-10-17T10:54:25.142Z,16.60
2022-10-17T10:57:00.064Z,16.61
2022-10-17T10:59:39.751Z,16.66
2022-10-17T11:02:21.977Z,16.67
2022-10-17T11:05:11.647Z,16.76
2022-10-17T11:07:58.497Z,16.83
2022-10-17T11:10:46.724Z,16.88
2022-10-17T11:13:28.923Z,16.92
2022-10-17T11:16:18.339Z,16.94
2022-10-17T11:19:16.685Z,16.98
2022-10-17T11:22:05.370Z,17.01
2022-10-17T11:24:57.084Z,17.05
2022-10-17T11:27:26.084Z,17.06
2022-10-17T11:29:58.164Z,17.12
2022-10-17T11:32:47.530Z,17.18
2022-10-17T11:35:25.077Z,17.21
2022-10-17T11:38:16.528Z,17.21
2022-10-17T11:40:50.900Z,17.19
2022-10-17T11:43:32.176Z,17.17
2022-10-17T11:46:15.949Z,17.17
2022-10-17T11:49:07.327Z,17.13
2022-10-17T11:52:10.191Z,17.10
2022-10-17T11:54:50.948Z,17.07
2022-10-17T11:57:50.403Z,17.05
2022-10-17T12:00:48.871Z,17.04
2022-10-17T12:04:13.513Z,17.05
2022-10-17T12:07:27.860Z,17.08
2022-10-17T12:10:29.178Z,17.08
2022-10-17T12:12:56.543Z,17.09
2022-10-17T12:15:23.507Z,17.10
2022-10-17T12:18:02.933Z,17.14
2022-10-17T12:20:36.524Z,17.15
2022-10-17T12:23:13.252Z,17.20
2022-10-17T12:26:05.477Z,17.23
2022-10-17T12:28:45.578Z,17.24
2022-10-17T12:31:19.849Z,17.28
2022-10-17T12:33:51.335Z,17.26
2022-10-17T12:36:28.695Z,17.26
2022-10-17T12:39:01.688Z,17.26
2022-10-17T12:41:39.123Z,17.25
2022-10-17T12:44:15.713Z,17.25
2022-10-17T12:47:29.367Z,17.28
2022-10-17T12:49:56.877Z,17.32
2022-10-17T12:52:31.941Z,17.37
2022-10-17T12:55:11.662Z,17.43
2022-10-17T12:57:59.771Z,17.48
2022-10-17T13:00:59.466Z,17.53
2022-10-17T13:03:42.419Z,17.56
2022-10-17T13:06:24.685Z,17.61
2022-10-17T13:09:24.877Z,17.64
2022-10-17T13:11:55.179Z,17.69
2022-10-17T13:14:24.880Z,17.72
2022-10-17T13:16:57.417Z,17.72
2022-10-17T13:19:30.689Z,17.66
2022-10-17T13:22:06.716Z,17.68
2022-10-17T13:24:39.113Z,17.70
2022-10-17T13:27:32.465Z,17.72
2022-10-17T13:30:03.719Z,17.72
2022-10-17T13:32:39.742Z,17.75
2022-10-17T13:35:17.192Z,17.71
2022-10-17T13:37:51.572Z,17.67
2022-10-17T13:40:49.682Z,17.65
2022-10-17T13:43:21.663Z,17.60
2022-10-17T13:45:54.163Z,17.59
2022-10-17T13:48:26.748Z,17.56
2022-10-17T13:51:02.461Z,17.49
2022-10-17T13:53:35.826Z,17.50
2022-10-17T13:56:29.880Z,17.47
2022-10-17T13:59:25.535Z,17.44
2022-10-17T14:01:55.406Z,17.42
2022-10-17T14:04:22.449Z,17.39
2022-10-17T14:06:52.255Z,17.40
2022-10-17T14:09:27.663Z,17.37
2022-10-17T14:12:11.031Z,17.32
2022-10-17T14:15:09.825Z,17.30
2022-10-17T14:17:39.410Z,17.25
2022-10-17T14:23:21.853Z,17.23
2022-10-17T14:25:44.662Z,17.22
2022-10-17T14:28:12.569Z,17.21
2022-10-17T14:30:57.856Z,17.21
2022-10-17T14:33:31.105Z,17.16
2022-10-17T14:36:01.718Z,17.17
2022-10-17T14:38:30.421Z,17.14
2022-10-17T14:44:22.896Z,17.07
2022-10-17T14:47:01.578Z,17.04
2022-10-17T14:49:40.754Z,17.05
2022-10-17T14:52:18.391Z,17.05
2022-10-17T14:54:50.446Z,17.07
2022-10-17T14:57:32.720Z,17.09
2022-10-17T14:59:59.967Z,17.11
2022-10-17T15:02:30.198Z,17.12
2022-10-17T15:04:57.821Z,17.14
2022-10-17T15:07:24.974Z,17.14
2022-10-17T15:09:54.220Z,17.17
2022-10-17T15:12:25.376Z,17.16
2022-10-17T15:14:54.239Z,17.17
2022-10-17T15:17:28.588Z,17.14
2022-10-17T15:19:57.323Z,17.13
2022-10-17T15:22:24.692Z,17.11
2022-10-17T15:24:51.999Z,17.08
2022-10-17T15:27:26.296Z,17.07
2022-10-17T15:29:53.303Z,17.05
2022-10-17T15:32:20.379Z,17.05
2022-10-17T15:34:47.494Z,17.03
2022-10-17T15:37:24.036Z,17.03
2022-10-17T15:39:55.161Z,17.01
2022-10-17T15:42:27.976Z,17.04
2022-10-17T15:44:58.365Z,17.04
2022-10-17T15:47:34.917Z,17.04
2022-10-17T15:50:06.920Z,17.05
2022-10-17T15:52:35.958Z,17.04
2022-10-17T15:55:24.179Z,17.03
2022-10-17T15:57:52.607Z,17.04
2022-10-17T16:00:24.390Z,17.01
2022-10-17T16:02:52.195Z,17.00
2022-10-17T16:05:25.800Z,16.98
2022-10-17T16:07:55.022Z,16.96
2022-10-17T16:10:24.051Z,16.95
2022-10-17T16:12:52.415Z,16.91
2022-10-17T16:15:28.492Z,16.88
2022-10-17T16:18:01.656Z,16.84
2022-10-17T16:20:32.547Z,16.80
2022-10-17T16:23:03.447Z,16.76
2022-10-17T16:25:32.823Z,16.73
2022-10-17T16:28:01.191Z,16.69
2022-10-17T16:30:32.005Z,16.68
2022-10-17T16:33:00.217Z,16.65
2022-10-17T16:35:34.740Z,16.64
2022-10-17T16:38:07.851Z,16.61
2022-10-17T16:40:40.486Z,16.60
2022-10-17T16:43:12.954Z,16.56
2022-10-17T16:45:46.093Z,16.55
2022-10-17T16:48:13.853Z,16.52
2022-10-17T16:50:42.504Z,16.48
2022-10-17T16:53:10.383Z,16.47
2022-10-17T16:55:38.583Z,16.45
2022-10-17T16:58:06.374Z,16.42
2022-10-17T17:00:34.477Z,16.39
2022-10-17T17:03:02.233Z,16.38
2022-10-17T17:05:31.358Z,16.36
2022-10-17T17:08:00.313Z,16.31
2022-10-17T17:10:28.056Z,16.28
2022-10-17T17:12:55.904Z,16.26
2022-10-17T17:15:23.539Z,16.24
2022-10-17T17:17:55.232Z,16.22
2022-10-17T17:20:24.239Z,16.22
2022-10-17T17:23:17.537Z,16.22
2022-10-17T17:25:45.525Z,16.18
2022-10-17T17:28:14.431Z,16.17
2022-10-17T17:30:41.866Z,16.13
2022-10-17T17:33:10.286Z,16.11
2022-10-17T17:35:40.102Z,16.09
2022-10-17T17:38:07.980Z,16.09
2022-10-17T17:40:35.872Z,16.07
2022-10-17T17:43:03.950Z,16.06
2022-10-17T17:45:31.905Z,16.04
2022-10-17T17:48:03.156Z,16.02
2022-10-17T17:50:31.006Z,15.99
2022-10-17T17:52:59.150Z,15.98
2022-10-17T17:55:27.085Z,15.97
2022-10-17T17:57:56.975Z,15.95
2022-10-17T18:00:24.973Z,15.93
2022-10-17T18:02:53.285Z,15.92
2022-10-17T18:05:26.785Z,15.93
2022-10-17T18:07:54.560Z,15.91
2022-10-17T18:10:22.662Z,15.90
2022-10-17T18:12:50.451Z,15.88
2022-10-17T18:15:18.244Z,15.88
2022-10-17T18:17:45.532Z,15.84
2022-10-17T18:20:12.556Z,15.81
2022-10-17T18:22:39.680Z,15.77
2022-10-17T18:25:07.221Z,15.77
2022-10-17T18:27:34.244Z,15.75
2022-10-17T18:30:01.296Z,15.73
2022-10-17T18:32:31.900Z,15.74
2022-10-17T18:34:59.182Z,15.71
2022-10-17T18:37:26.218Z,15.71
2022-10-17T18:39:55.843Z,15.71
2022-10-17T18:42:23.400Z,15.71
2022-10-17T18:44:50.586Z,15.72
2022-10-17T18:47:17.656Z,15.73
2022-10-17T18:49:44.767Z,15.72
2022-10-17T18:52:11.899Z,15.73
2022-10-17T18:54:39.356Z,15.71
2022-10-17T18:57:06.905Z,15.71
2022-10-17T18:59:34.267Z,15.69
2022-10-17T19:02:01.386Z,15.68
2022-10-17T19:04:28.653Z,15.66
2022-10-17T19:06:55.724Z,15.65
2022-10-17T19:09:23.821Z,15.64
2022-10-17T19:11:50.974Z,15.64
2022-10-17T19:14:18.944Z,15.63
2022-10-17T19:16:50.841Z,15.62
2022-10-17T19:19:23.323Z,15.61
2022-10-17T19:21:51.739Z,15.60
2022-10-17T19:24:23.329Z,15.58
2022-10-17T19:26:53.525Z,15.58
2022-10-17T19:29:23.220Z,15.56
2022-10-17T19:31:50.660Z,15.56
2022-10-17T19:34:19.307Z,15.55
2022-10-17T19:36:46.670Z,15.55
2022-10-17T19:39:18.764Z,15.55
2022-10-17T19:41:48.247Z,15.55
2022-10-17T19:44:16.833Z,15.55
2022-10-17T19:46:46.621Z,15.55
2022-10-17T19:49:14.455Z,15.55
2022-10-17T19:51:41.784Z,15.55
2022-10-17T19:54:09.609Z,15.53
2022-10-17T19:56:37.924Z,15.55
2022-10-17T19:59:06.713Z,15.55
2022-10-17T20:01:38.969Z,15.53
2022-10-17T20:04:08.589Z,15.55
2022-10-17T20:06:35.608Z,15.56
2022-10-17T20:09:04.360Z,15.56
2022-10-17T20:11:31.931Z,15.57
2022-10-17T20:14:01.729Z,15.57
2022-10-17T20:16:34.494Z,15.57
2022-10-17T20:19:09.404Z,15.56
2022-10-17T20:21:37.334Z,15.56
2022-10-17T20:24:12.023Z,15.55
2022-10-17T20:26:39.994Z,15.53
2022-10-17T20:29:14.480Z,15.52
2022-10-17T20:31:44.163Z,15.53
2022-10-17T20:34:15.196Z,15.52
2022-10-17T20:36:43.531Z,15.52
2022-10-17T20:39:13.770Z,15.51
2022-10-17T20:41:41.167Z,15.51
2022-10-17T20:44:09.128Z,15.52
2022-10-17T20:46:45.280Z,15.52
2022-10-17T20:49:24.620Z,15.53
2022-10-17T20:51:51.837Z,15.55
2022-10-17T20:54:18.820Z,15.56
2022-10-17T20:56:45.822Z,15.56
2022-10-17T20:59:16.338Z,15.58
2022-10-17T21:01:45.385Z,15.59
2022-10-17T21:04:43.987Z,15.60
2022-10-17T21:07:00.792Z,15.60
2022-10-17T21:09:29.002Z,15.59
2022-10-17T21:11:56.893Z,15.60
2022-10-17T21:14:25.187Z,15.59
2022-10-17T21:16:52.371Z,15.58
2022-10-17T21:19:21.709Z,15.56
2022-10-17T21:21:48.975Z,15.55
2022-10-17T21:24:19.148Z,15.54
2022-10-17T21:26:50.220Z,15.51
2022-10-17T21:29:17.190Z,15.51
2022-10-17T21:31:44.958Z,15.49
2022-10-17T21:34:18.878Z,15.47
2022-10-17T21:36:46.385Z,15.44
2022-10-17T21:39:15.307Z,15.43
2022-10-17T21:41:44.123Z,15.41
2022-10-17T21:44:21.028Z,15.41
2022-10-17T21:46:49.084Z,15.37
2022-10-17T21:49:20.245Z,15.33
2022-10-17T21:51:50.252Z,15.30
2022-10-17T21:54:19.688Z,15.25
2022-10-17T21:56:47.709Z,15.21
2022-10-17T21:59:15.308Z,15.18
2022-10-17T22:01:46.279Z,15.16
2022-10-17T22:04:19.063Z,15.14
2022-10-17T22:06:51.147Z,15.11
2022-10-17T22:09:24.799Z,15.09
2022-10-17T22:11:56.895Z,15.03
2022-10-17T22:14:26.699Z,14.98
2022-10-17T22:16:55.147Z,14.97
2022-10-17T22:19:26.098Z,14.97
2022-10-17T22:21:54.177Z,14.96
2022-10-17T22:24:23.489Z,14.96
2022-10-17T22:26:51.564Z,14.93
2022-10-17T22:29:18.791Z,14.89
2022-10-17T22:31:47.952Z,14.86
2022-10-17T22:34:17.651Z,14.84
2022-10-17T22:36:45.072Z,14.82
2022-10-17T22:39:12.149Z,14.79
2022-10-17T22:41:39.435Z,14.76
2022-10-17T22:44:06.837Z,14.75
2022-10-17T22:46:35.316Z,14.74
2022-10-17T22:49:02.733Z,14.73
2022-10-17T22:51:29.837Z,14.75
2022-10-17T22:53:58.892Z,14.78
2022-10-17T22:56:25.907Z,14.80
2022-10-17T22:58:53.458Z,14.81
2022-10-17T23:01:24.074Z,14.82
2022-10-17T23:03:53.130Z,14.82
2022-10-17T23:06:21.055Z,14.81
2022-10-17T23:08:48.603Z,14.80
2022-10-17T23:11:15.712Z,14.79
2022-10-17T23:13:42.979Z,14.76
2022-10-17T23:16:10.525Z,14.74
2022-10-17T23:18:39.088Z,14.70
2022-10-17T23:21:07.164Z,14.67
2022-10-17T23:23:34.812Z,14.62
2022-10-17T23:26:11.990Z,14.58
2022-10-17T23:28:40.669Z,14.50
2022-10-17T23:31:18.126Z,14.45
2022-10-17T23:33:47.869Z,14.42
2022-10-17T23:36:18.277Z,14.41
2022-10-17T23:38:47.736Z,14.40
2022-10-17T23:41:15.591Z,14.41
2022-10-17T23:43:44.067Z,14.43
2022-10-17T23:46:11.333Z,14.46
2022-10-17T23:48:39.514Z,14.47
2022-10-17T23:51:07.915Z,14.49
2022-10-17T23:53:36.949Z,14.47
2022-10-17T23:56:05.147Z,14.48
2022-10-17T23:58:32.676Z,14.48
